This is the latest recevied weather packets stored in our database for station/object DL4JCP-6. If no packets are shown the sender has not sent any weather packets the latest 10 day(s).
| Time | Temp. | Humidity | Pressure | Rain* | Wind** | Luminosity | Snow |
|---|---|---|---|---|---|---|---|
| 1777969993 | 16.11° C | 79% | 1010.6 hPa | 0 mm | - | - | - |
| 1777969096 | 15.56° C | 82% | 1010.7 hPa | 0 mm | - | - | - |
| 1777968193 | 15° C | 82% | 1010.7 hPa | 0 mm | - | - | - |
| 1777967293 | 15° C | 82% | 1010.9 hPa | 0 mm | - | - | - |
| 1777966393 | 15° C | 84% | 1011.1 hPa | 0 mm | - | - | - |
| 1777965493 | 14.44° C | 86% | 1011.2 hPa | 0 mm | - | - | - |
| 1777964592 | 13.33° C | 89% | 1011.1 hPa | 0 mm | - | - | - |
| 1777963696 | 12.78° C | 92% | 1011 hPa | 0 mm | - | - | - |
| 1777962792 | 11.67° C | 92% | 1011.2 hPa | 0 mm | - | - | - |
| 1777961896 | 11.67° C | 92% | 1011.3 hPa | 0.25 mm | - | - | - |
| 1777960992 | 11.67° C | 93% | 1011.3 hPa | 0.25 mm | - | - | - |
| 1777960095 | 11.11° C | 92% | 1011.4 hPa | 0.25 mm | - | - | - |
| 1777959195 | 11.11° C | 91% | 1011.5 hPa | 0.25 mm | - | - | - |
| 1777958292 | 11.11° C | 91% | 1011.5 hPa | 0 mm | - | - | - |
| 1777957392 | 11.11° C | 90% | 1011.4 hPa | 0 mm | - | - | - |
| 1777956492 | 11.11° C | 90% | 1011.7 hPa | 0 mm | - | - | - |
| 1777955592 | 10.56° C | 90% | 1011.7 hPa | 0 mm | - | - | - |
| 1777954695 | 10.56° C | 90% | 1011.5 hPa | 0 mm | - | - | - |
| 1777953792 | 10.56° C | 89% | 1011.6 hPa | 0 mm | - | - | - |
| 1777941195 | 12.22° C | 85% | 1013.4 hPa | 0 mm | - | - | - |
| 1777940295 | 12.22° C | 85% | 1013.6 hPa | 0 mm | - | - | - |
| 1777934894 | 12.78° C | 84% | 1014.1 hPa | 0 mm | - | - | - |
| 1777933994 | 12.78° C | 85% | 1014.1 hPa | 0 mm | - | - | - |
| 1777933094 | 12.78° C | 85% | 1014 hPa | 0 mm | - | - | - |
| 1777929494 | 12.78° C | 83% | 1014.1 hPa | 0 mm | - | - | - |
* Rain latest hour (hover to see other rain measurements)
** Current wind speed in m/s (hover to see current wind gust speed)